Time;durP1;ratioP1;P1;durP2;ratioP2;P2;SDS_P1;SDS_P2;PMS_P1;PMS_P2;Temp;Humidity;BMP_temperature;BMP_pressure;BME280_temperature;BME280_humidity;BME280_pressure;Samples;Min_cycle;Max_cycle;Signal;HPM_P1;HPM_P2
2021/12/25 00:01:24;;;;;;;20.50;9.55;;;;;;;-0.05;84.17;97291.97;5085954;28;20023;-66
2021/12/25 00:03:51;;;;;;;18.50;10.20;;;;;;;-0.10;83.94;97283.81;5107190;27;20171;-65
2021/12/25 00:06:17;;;;;;;19.88;10.43;;;;;;;-0.16;84.73;97299.16;5088073;28;20039;-65
2021/12/25 00:08:42;;;;;;;13.00;8.23;;;;;;;-0.14;84.26;97298.88;5102849;28;20036;-65
2021/12/25 00:11:10;;;;;;;16.33;9.52;;;;;;;-0.12;84.01;97294.03;5105483;27;20444;-65
2021/12/25 00:13:36;;;;;;;14.77;9.07;;;;;;;-0.06;84.56;97293.03;5084018;28;20054;-65
2021/12/25 00:16:01;;;;;;;15.68;9.25;;;;;;;-0.06;84.53;97306.50;5102452;27;20063;-65
2021/12/25 00:18:27;;;;;;;12.50;7.88;;;;;;;-0.05;84.39;97310.03;5102691;27;20390;-65
2021/12/25 00:20:52;;;;;;;11.57;7.75;;;;;;;-0.07;84.62;97314.88;5105689;27;20077;-65
2021/12/25 00:23:18;;;;;;;13.25;7.97;;;;;;;-0.08;84.33;97322.13;5104031;27;20039;-64
2021/12/25 00:25:49;;;;;;;10.45;6.68;;;;;;;-0.09;84.17;97323.19;5104532;28;20063;-64
2021/12/25 00:31:02;;;;;;;17.58;9.90;;;;;;;-0.04;84.70;97341.31;5103893;28;20051;-64
2021/12/25 00:33:36;;;;;;;14.98;8.80;;;;;;;-0.09;84.82;97325.88;5100796;28;20165;-63
2021/12/25 00:36:03;;;;;;;14.43;9.98;;;;;;;-0.08;84.28;97337.50;5102022;28;20036;-63
2021/12/25 00:38:29;;;;;;;17.88;11.77;;;;;;;-0.08;84.88;97332.91;5084172;28;20734;-63
2021/12/25 00:40:54;;;;;;;18.98;9.48;;;;;;;-0.06;84.56;97340.75;5102500;28;20102;-63
2021/12/25 00:43:20;;;;;;;26.45;10.43;;;;;;;-0.09;84.94;97338.56;5102058;28;20484;-63
2021/12/25 00:45:45;;;;;;;145.93;34.13;;;;;;;-0.12;84.93;97345.25;5104694;28;20031;-63
2021/12/25 00:48:10;;;;;;;112.03;26.45;;;;;;;-0.22;84.88;97354.06;5104670;28;20085;-63
2021/12/25 00:50:36;;;;;;;34.88;12.18;;;;;;;-0.29;84.82;97344.56;5104785;28;20027;-63
2021/12/25 00:53:01;;;;;;;31.45;11.70;;;;;;;-0.33;84.61;97350.44;5104080;28;20059;-63
2021/12/25 00:55:27;;;;;;;41.97;13.02;;;;;;;-0.36;84.70;97363.59;5083779;28;20521;-63
2021/12/25 00:57:52;;;;;;;35.78;13.15;;;;;;;-0.36;85.02;97371.66;5104841;28;20063;-63
2021/12/25 01:00:19;;;;;;;26.40;12.10;;;;;;;-0.37;84.82;97378.94;5105008;28;20102;-63
2021/12/25 01:02:46;;;;;;;27.98;11.35;;;;;;;-0.36;84.92;97388.66;5104644;28;20035;-63
2021/12/25 01:05:14;;;;;;;26.77;11.15;;;;;;;-0.35;84.78;97402.94;5102055;28;20036;-64
2021/12/25 01:07:40;;;;;;;28.40;12.68;;;;;;;-0.31;85.20;97393.28;5085353;28;20032;-64
2021/12/25 01:10:13;;;;;;;26.83;12.65;;;;;;;-0.32;85.23;97400.56;5103410;28;20058;-63
2021/12/25 01:15:19;;;;;;;29.83;14.20;;;;;;;-0.33;85.37;97392.72;5102111;28;20505;-63
2021/12/25 01:29:09;;;;;;;23.50;11.05;;;;;;;-0.29;85.18;97410.03;5056510;28;20079;-64
2021/12/25 01:31:48;;;;;;;23.50;12.45;;;;;;;-0.28;85.17;97410.84;5104232;28;20043;-63
2021/12/25 01:37:37;;;;;;;26.30;12.57;;;;;;;-0.31;85.25;97417.53;5103281;28;20486;-63
2021/12/25 01:39:40;;;;;;;24.65;11.82;;;;;;;-0.32;85.00;97427.50;5100135;28;20032;-65
2021/12/25 01:49:56;;;;;;;18.00;10.27;;;;;;;-0.38;85.03;97443.84;5100159;28;20031;-64
2021/12/25 01:52:26;;;;;;;14.05;8.73;;;;;;;-0.43;84.56;97441.13;5104102;28;20154;-65
2021/12/25 01:55:00;;;;;;;14.85;8.30;;;;;;;-0.43;84.61;97435.72;5094908;28;20027;-64
2021/12/25 01:57:26;;;;;;;16.80;8.95;;;;;;;-0.45;84.82;97444.03;5102586;28;20028;-65
2021/12/25 01:59:52;;;;;;;14.68;7.50;;;;;;;-0.45;84.72;97433.28;5083931;28;20438;-65
2021/12/25 02:02:18;;;;;;;41.35;13.00;;;;;;;-0.44;84.91;97440.28;5103535;28;20040;-65
2021/12/25 02:04:43;;;;;;;15.18;8.55;;;;;;;-0.41;85.09;97445.19;5100784;28;20842;-64
2021/12/25 02:07:09;;;;;;;17.02;7.45;;;;;;;-0.42;84.86;97443.53;5102306;28;20031;-66
2021/12/25 02:09:34;;;;;;;12.35;7.35;;;;;;;-0.44;84.79;97439.47;5102492;28;20372;-65
2021/12/25 02:12:00;;;;;;;15.18;8.18;;;;;;;-0.46;84.62;97439.72;5102650;28;20488;-65
2021/12/25 02:14:26;;;;;;;11.13;6.53;;;;;;;-0.50;84.48;97447.50;5101162;28;20471;-62
2021/12/25 02:17:25;;;;;;;17.77;8.18;;;;;;;-0.52;84.37;97456.88;5102606;28;20484;-64
2021/12/25 02:19:50;;;;;;;14.23;7.18;;;;;;;-0.52;84.61;97456.88;5099614;28;20036;-63
2021/12/25 02:22:18;;;;;;;15.07;7.85;;;;;;;-0.46;84.71;97453.19;5101985;28;20059;-63
2021/12/25 02:24:45;;;;;;;12.18;7.10;;;;;;;-0.40;84.78;97478.31;5100767;28;20038;-64
2021/12/25 02:27:11;;;;;;;16.83;7.70;;;;;;;-0.40;84.71;97475.63;5102360;28;20059;-64
2021/12/25 02:29:37;;;;;;;15.68;7.63;;;;;;;-0.36;84.94;97472.19;5101483;28;20066;-64
2021/12/25 02:32:04;;;;;;;17.23;8.57;;;;;;;-0.30;84.64;97478.44;5102358;28;20055;-65
2021/12/25 02:34:29;;;;;;;14.13;7.32;;;;;;;-0.23;84.92;97475.59;5097823;28;20058;-63
2021/12/25 02:36:55;;;;;;;20.52;8.35;;;;;;;-0.23;84.60;97487.16;5102347;28;20041;-63
2021/12/25 02:39:20;;;;;;;13.80;6.93;;;;;;;-0.23;84.21;97494.44;5102539;28;20067;-63
2021/12/25 02:41:46;;;;;;;11.20;6.50;;;;;;;-0.22;84.59;97491.50;5105777;28;20057;-63
2021/12/25 02:44:11;;;;;;;12.25;7.00;;;;;;;-0.19;84.71;97503.63;5103673;28;20027;-63
2021/12/25 02:46:37;;;;;;;15.23;7.18;;;;;;;-0.23;84.15;97503.34;5105088;28;20811;-63
2021/12/25 02:49:02;;;;;;;10.77;6.28;;;;;;;-0.27;83.90;97504.91;5105614;28;20028;-63
2021/12/25 02:51:28;;;;;;;12.77;6.70;;;;;;;-0.31;83.98;97499.19;5106250;28;20446;-63
2021/12/25 02:53:54;;;;;;;9.98;6.13;;;;;;;-0.33;83.95;97495.94;5104740;28;20520;-63
2021/12/25 02:56:20;;;;;;;9.27;6.07;;;;;;;-0.33;84.21;97497.81;5106012;28;20540;-63
2021/12/25 02:58:46;;;;;;;9.52;6.30;;;;;;;-0.35;83.88;97514.22;5087391;28;20123;-63
2021/12/25 03:01:16;;;;;;;9.57;5.53;;;;;;;-0.34;84.06;97501.56;5104793;28;20061;-63
2021/12/25 03:03:41;;;;;;;;;;;;;;;-0.36;83.46;97501.81;5103936;28;20131;-64
2021/12/25 03:06:08;;;;;;;10.27;6.53;;;;;;;-0.33;84.13;97505.88;5105219;28;20409;-63
2021/12/25 03:08:35;;;;;;;10.82;6.10;;;;;;;-0.31;84.16;97509.16;5105522;28;20030;-64
2021/12/25 03:11:03;;;;;;;8.10;5.70;;;;;;;-0.27;83.78;97506.78;5105830;28;20399;-63
2021/12/25 03:13:35;;;;;;;7.82;5.18;;;;;;;-0.29;83.93;97517.00;5102297;28;20072;-64
2021/12/25 03:16:02;;;;;;;7.68;5.35;;;;;;;-0.33;83.67;97519.34;5105098;28;20566;-63
2021/12/25 03:18:36;;;;;;;10.07;7.25;;;;;;;-0.29;83.94;97527.78;5103367;28;20452;-63
2021/12/25 03:21:04;;;;;;;9.00;6.03;;;;;;;-0.29;83.57;97550.13;5105582;28;20076;-63
2021/12/25 03:23:32;;;;;;;7.93;5.00;;;;;;;-0.38;83.18;97555.13;5103573;28;20066;-63
2021/12/25 03:26:00;;;;;;;7.93;4.95;;;;;;;-0.49;82.83;97551.50;5104371;28;20045;-63
2021/12/25 03:28:32;;;;;;;6.13;4.43;;;;;;;-0.58;82.56;97552.13;5105279;28;20067;-63
2021/12/25 03:31:04;;;;;;;8.13;5.22;;;;;;;-0.69;82.36;97540.38;5105762;28;20041;-63
2021/12/25 03:33:30;;;;;;;7.15;5.05;;;;;;;-0.76;82.39;97560.22;5083316;28;20600;-63
2021/12/25 03:35:57;;;;;;;8.90;6.10;;;;;;;-0.85;82.07;97553.63;5104632;28;20100;-63
2021/12/25 03:38:23;;;;;;;8.30;5.35;;;;;;;-0.88;81.83;97570.28;5104957;28;20031;-63
2021/12/25 03:40:50;;;;;;;9.23;5.57;;;;;;;-0.94;82.29;97563.97;5104874;28;20164;-64
2021/12/25 03:43:16;;;;;;;8.88;5.95;;;;;;;-0.95;82.10;97570.41;5104010;28;20027;-63
2021/12/25 03:45:42;;;;;;;9.57;6.80;;;;;;;-0.97;82.38;97571.72;5103928;28;20039;-63
2021/12/25 03:48:43;;;;;;;10.05;5.70;;;;;;;-0.99;82.41;97574.63;5085560;28;20046;-63
2021/12/25 03:59:00;;;;;;;8.50;5.28;;;;;;;-1.10;81.30;97589.81;5104184;28;20089;-64
2021/12/25 04:04:08;;;;;;;12.20;7.50;;;;;;;-1.18;81.71;97602.84;5103008;28;20077;-63
2021/12/25 04:06:35;;;;;;;9.27;5.57;;;;;;;-1.18;81.36;97600.94;5103685;28;20028;-63
2021/12/25 04:09:09;;;;;;;7.00;5.45;;;;;;;-1.23;81.41;97611.66;5104516;28;20035;-63
2021/12/25 04:11:35;;;;;;;9.88;7.10;;;;;;;-1.33;80.99;97617.63;5103258;28;20023;-64
2021/12/25 04:14:01;;;;;;;7.80;5.63;;;;;;;-1.37;80.92;97629.91;5102440;28;20059;-63
2021/12/25 04:16:26;;;;;;;8.55;5.85;;;;;;;-1.42;81.19;97635.19;5102356;27;20497;-63
2021/12/25 04:18:53;;;;;;;9.45;6.28;;;;;;;-1.47;80.96;97632.44;5106283;27;20059;-65
2021/12/25 04:21:19;;;;;;;11.60;7.10;;;;;;;-1.53;81.01;97639.56;5103927;28;20039;-64
2021/12/25 04:23:45;;;;;;;8.63;6.68;;;;;;;-1.57;81.02;97643.78;5102172;28;20035;-65
2021/12/25 04:26:12;;;;;;;5.85;4.35;;;;;;;-1.65;81.17;97648.50;5106269;27;20476;-64
2021/12/25 04:31:22;;;;;;;7.72;4.70;;;;;;;-1.69;80.95;97674.22;5106056;28;20055;-64
2021/12/25 05:05:56;;;;;;;9.55;5.72;;;;;;;-2.41;79.05;97716.34;5106208;28;20537;-64
2021/12/25 05:08:22;;;;;;;8.43;4.68;;;;;;;-2.44;78.74;97719.50;5105486;28;20035;-64
2021/12/25 05:10:47;;;;;;;14.85;9.85;;;;;;;-2.46;79.16;97720.78;5105339;28;20028;-64
2021/12/25 05:13:13;;;;;;;15.30;9.63;;;;;;;-2.47;79.30;97728.00;5104088;28;20058;-64
2021/12/25 05:15:38;;;;;;;9.63;5.85;;;;;;;-2.51;78.82;97726.84;5104432;28;20031;-63
2021/12/25 05:18:05;;;;;;;7.22;5.25;;;;;;;-2.60;78.92;97731.72;5105185;28;20019;-63
2021/12/25 05:20:31;;;;;;;9.18;6.63;;;;;;;-2.62;78.93;97724.91;5105415;28;20019;-63
2021/12/25 05:22:56;;;;;;;8.82;5.45;;;;;;;-2.64;79.01;97740.44;5105584;28;20016;-64
2021/12/25 05:25:22;;;;;;;6.57;4.65;;;;;;;-2.70;78.60;97732.28;5102760;28;20480;-64
2021/12/25 05:27:49;;;;;;;11.80;7.97;;;;;;;-2.73;78.73;97753.38;5104899;28;20031;-65
2021/12/25 05:30:15;;;;;;;12.90;6.80;;;;;;;-2.75;78.52;97760.81;5103748;28;20031;-63
2021/12/25 05:32:40;;;;;;;13.85;8.45;;;;;;;-2.77;79.06;97758.38;5104891;27;20387;-64
2021/12/25 05:35:06;;;;;;;16.02;9.90;;;;;;;-2.76;78.77;97765.38;5101274;28;20463;-63
2021/12/25 05:37:31;;;;;;;11.35;8.15;;;;;;;-2.76;79.00;97760.03;5102568;28;20023;-64
2021/12/25 05:39:57;;;;;;;10.90;6.60;;;;;;;-2.75;78.89;97763.50;5103551;28;20015;-63
2021/12/25 05:42:23;;;;;;;8.10;4.82;;;;;;;-2.75;78.72;97768.88;5085243;28;20026;-64
2021/12/25 05:44:50;;;;;;;6.30;4.22;;;;;;;-2.77;79.03;97769.13;5101737;28;20027;-63
2021/12/25 05:47:16;;;;;;;5.97;4.40;;;;;;;-2.78;79.04;97777.38;5102999;28;20471;-63
2021/12/25 05:49:41;;;;;;;8.05;5.47;;;;;;;-2.73;78.95;97777.53;5103478;28;20232;-63
2021/12/25 05:52:07;;;;;;;9.05;5.53;;;;;;;-2.74;79.21;97776.72;5103139;28;20519;-63
2021/12/25 05:54:32;;;;;;;6.13;3.80;;;;;;;-2.78;78.72;97780.06;5081845;28;20019;-63
2021/12/25 05:56:58;;;;;;;8.13;4.78;;;;;;;-2.86;78.31;97784.72;5103248;28;20056;-64
2021/12/25 05:59:23;;;;;;;8.07;4.70;;;;;;;-2.93;78.32;97800.09;5103528;28;20065;-64
2021/12/25 06:01:49;;;;;;;7.85;5.47;;;;;;;-2.98;78.29;97807.97;5103359;28;20038;-64
2021/12/25 06:04:14;;;;;;;6.40;3.72;;;;;;;-3.00;78.73;97816.25;5101299;28;20137;-63
2021/12/25 06:06:39;;;;;;;6.97;4.53;;;;;;;-3.02;78.67;97804.09;5084125;28;20372;-64
2021/12/25 06:09:09;;;;;;;5.90;3.97;;;;;;;-3.03;78.52;97808.63;5102439;28;20391;-63
2021/12/25 06:11:36;;;;;;;4.27;3.73;;;;;;;-3.03;78.54;97816.69;5084151;28;20411;-65
2021/12/25 06:14:17;;;;;;;6.82;4.47;;;;;;;-3.10;78.10;97818.66;5100297;28;20097;-65
2021/12/25 06:16:43;;;;;;;8.35;5.72;;;;;;;-3.10;78.24;97831.22;5106119;28;20023;-65
2021/12/25 06:19:09;;;;;;;12.50;9.40;;;;;;;-3.11;78.29;97837.63;5106638;28;20031;-65
2021/12/25 06:21:35;;;;;;;24.75;17.15;;;;;;;-3.14;78.45;97839.72;5106792;28;20020;-64
2021/12/25 06:24:02;;;;;;;12.32;8.40;;;;;;;-3.19;77.93;97847.59;5082057;28;20055;-64
2021/12/25 06:26:29;;;;;;;15.45;9.85;;;;;;;-3.27;77.65;97844.41;5069877;28;20337;-65
2021/12/25 06:28:55;;;;;;;12.40;8.88;;;;;;;-3.33;77.76;97846.13;5107289;28;20023;-65
2021/12/25 06:31:22;;;;;;;10.73;6.57;;;;;;;-3.39;77.78;97845.13;5107045;28;20159;-64
2021/12/25 06:33:47;;;;;;;9.98;7.25;;;;;;;-3.47;77.73;97843.56;5104659;28;20106;-65
2021/12/25 06:36:12;;;;;;;8.07;4.65;;;;;;;-3.50;77.70;97835.16;5106416;28;20041;-64
2021/12/25 06:38:40;;;;;;;11.10;7.22;;;;;;;-3.55;77.88;97843.03;5106479;28;20112;-65
2021/12/25 06:41:05;;;;;;;17.55;9.32;;;;;;;-3.59;78.02;97854.19;5087627;28;20031;-65
2021/12/25 06:43:31;;;;;;;10.98;6.45;;;;;;;-3.62;77.77;97853.78;5104970;28;20024;-65
2021/12/25 06:45:57;;;;;;;6.95;4.97;;;;;;;-3.65;78.15;97849.69;5106795;28;20035;-65
2021/12/25 06:48:22;;;;;;;7.13;5.25;;;;;;;-3.68;77.93;97850.13;5106253;28;20036;-65
2021/12/25 06:50:48;;;;;;;12.27;8.43;;;;;;;-3.72;78.30;97854.28;5106693;28;20104;-65
2021/12/25 06:53:14;;;;;;;11.80;7.07;;;;;;;-3.76;77.74;97858.44;5105389;28;20023;-65
2021/12/25 06:55:39;;;;;;;12.32;7.00;;;;;;;-3.78;77.97;97861.34;5105288;28;20031;-64
2021/12/25 06:58:04;;;;;;;18.48;9.35;;;;;;;-3.81;77.81;97863.63;5105984;28;20110;-65
2021/12/25 07:00:30;;;;;;;9.40;5.10;;;;;;;-3.89;77.38;97860.19;5106212;28;20016;-64
2021/12/25 07:02:57;;;;;;;9.77;6.10;;;;;;;-3.94;77.68;97865.38;5106190;28;20016;-64
2021/12/25 07:05:23;;;;;;;13.27;6.55;;;;;;;-3.97;76.84;97867.66;5104971;28;20123;-64
2021/12/25 07:07:48;;;;;;;7.65;4.32;;;;;;;-4.01;77.19;97871.81;5105732;28;20035;-65
2021/12/25 07:10:14;;;;;;;6.07;3.55;;;;;;;-4.01;77.42;97872.66;5105736;28;20712;-64
2021/12/25 07:12:46;;;;;;;6.38;3.92;;;;;;;-4.01;77.67;97866.44;5105929;28;20026;-64
2021/12/25 07:15:12;;;;;;;6.22;3.40;;;;;;;-4.01;77.00;97866.44;5084853;28;20031;-64
2021/12/25 07:17:37;;;;;;;6.68;3.38;;;;;;;-4.05;76.83;97860.72;5106029;27;20513;-64
2021/12/25 07:20:04;;;;;;;10.10;4.25;;;;;;;-4.04;76.91;97862.34;5106306;28;20369;-64
2021/12/25 07:22:29;;;;;;;8.52;4.25;;;;;;;-4.03;77.19;97874.72;5104287;28;20036;-64
2021/12/25 07:24:55;;;;;;;9.55;4.57;;;;;;;-4.03;76.45;97885.44;5105368;28;20027;-64
2021/12/25 07:27:20;;;;;;;6.32;3.95;;;;;;;-4.04;76.72;97886.47;5106286;28;20050;-64
2021/12/25 07:29:45;;;;;;;8.27;5.43;;;;;;;-4.10;76.61;97876.59;5106533;28;20035;-64
2021/12/25 07:32:11;;;;;;;9.00;4.47;;;;;;;-4.09;75.89;97884.44;5087896;28;20115;-64
2021/12/25 07:34:36;;;;;;;11.23;7.00;;;;;;;-4.09;76.21;97892.47;5086919;28;20023;-65
2021/12/25 07:37:03;;;;;;;8.80;4.45;;;;;;;-4.12;76.08;97898.25;5106925;28;20127;-64
2021/12/25 07:39:29;;;;;;;15.68;8.48;;;;;;;-4.14;76.08;97899.50;5087630;28;20026;-64
2021/12/25 07:41:54;;;;;;;18.40;9.38;;;;;;;-4.15;74.75;97895.19;5088112;28;20032;-64
2021/12/25 07:44:20;;;;;;;10.68;5.10;;;;;;;-4.17;75.33;97900.75;5086234;28;20120;-64
2021/12/25 07:46:45;;;;;;;11.82;6.05;;;;;;;-4.19;75.82;97903.63;5106120;28;20043;-64
2021/12/25 07:49:17;;;;;;;10.07;5.20;;;;;;;-4.14;75.55;97904.84;5106499;28;20042;-64
2021/12/25 07:51:43;;;;;;;8.77;4.80;;;;;;;-4.14;75.22;97907.53;5106020;28;20047;-64
2021/12/25 07:54:09;;;;;;;10.07;5.65;;;;;;;-4.16;75.25;97913.13;5104791;28;20031;-63
2021/12/25 07:56:35;;;;;;;18.17;8.60;;;;;;;-4.13;74.84;97899.31;5106299;28;20383;-64
2021/12/25 07:59:00;;;;;;;17.85;9.60;;;;;;;-4.11;75.84;97913.28;5105623;28;20023;-64
2021/12/25 08:01:26;;;;;;;14.00;7.30;;;;;;;-4.07;75.33;97913.69;5106540;28;20038;-64
2021/12/25 08:03:51;;;;;;;13.48;6.88;;;;;;;-4.07;75.27;97913.69;5105016;28;20123;-65
2021/12/25 08:06:17;;;;;;;46.03;21.48;;;;;;;-4.03;75.86;97918.38;5087454;28;20496;-65
2021/12/25 08:08:43;;;;;;;23.65;10.70;;;;;;;-4.03;75.05;97926.41;5106003;28;20036;-65
2021/12/25 08:11:08;;;;;;;51.83;21.48;;;;;;;-4.09;74.75;97929.97;5104327;28;20063;-65
2021/12/25 08:13:34;;;;;;;72.63;28.42;;;;;;;-4.10;75.29;97930.19;5103686;28;20029;-65
2021/12/25 08:15:59;;;;;;;18.67;8.82;;;;;;;-4.09;74.83;97929.97;5103482;28;20547;-63
2021/12/25 08:18:25;;;;;;;33.35;15.95;;;;;;;-4.10;74.72;97928.34;5108059;27;20024;-64
2021/12/25 08:20:50;;;;;;;23.35;10.50;;;;;;;-4.08;75.44;97931.63;5106027;28;20024;-64
2021/12/25 08:23:15;;;;;;;30.15;14.13;;;;;;;-4.10;75.03;97939.03;5105842;27;20035;-64
2021/12/25 08:25:41;;;;;;;21.65;12.05;;;;;;;-4.12;75.02;97945.63;5105340;28;20032;-65
2021/12/25 08:28:06;;;;;;;12.55;7.90;;;;;;;-4.11;74.73;97941.91;5104993;28;20563;-64
2021/12/25 08:30:32;;;;;;;16.48;8.65;;;;;;;-4.06;75.43;97942.91;5105884;28;20487;-64
2021/12/25 08:32:59;;;;;;;21.08;10.95;;;;;;;-4.07;75.48;97941.28;5105569;28;20039;-64
2021/12/25 08:35:26;;;;;;;17.65;9.52;;;;;;;-4.07;75.36;97937.78;5104063;28;20016;-64
2021/12/25 08:37:52;;;;;;;27.50;17.55;;;;;;;-4.06;74.60;97942.91;5105391;28;20032;-64
2021/12/25 08:40:18;;;;;;;22.45;10.98;;;;;;;-4.03;74.98;97952.41;5105737;28;20032;-64
2021/12/25 08:42:52;;;;;;;9.05;5.50;;;;;;;-3.98;74.63;97947.22;5105257;28;20036;-64
2021/12/25 08:46:03;;;;;;;9.52;5.40;;;;;;;-3.91;75.02;97950.69;5104347;28;20088;-65
2021/12/25 08:48:18;;;;;;;16.17;6.43;;;;;;;-3.84;74.49;97955.16;5091474;28;20036;-65
2021/12/25 08:50:47;;;;;;;14.40;5.80;;;;;;;-3.83;74.96;97949.59;5105035;28;20055;-64
2021/12/25 08:53:12;;;;;;;14.88;7.30;;;;;;;-3.83;74.91;97948.75;5103609;28;20031;-64
2021/12/25 08:55:38;;;;;;;15.18;6.68;;;;;;;-3.79;74.40;97956.19;5105154;27;20030;-64
2021/12/25 08:58:03;;;;;;;12.75;5.18;;;;;;;-3.78;74.06;97962.34;5106783;27;20073;-65
2021/12/25 09:00:29;;;;;;;12.63;6.20;;;;;;;-3.74;73.96;97964.41;5106165;27;20019;-64
2021/12/25 09:02:54;;;;;;;12.18;7.10;;;;;;;-3.70;73.99;97972.81;5104885;28;20411;-65
2021/12/25 09:05:20;;;;;;;21.95;9.18;;;;;;;-3.66;74.14;97971.34;5103521;28;20121;-64
2021/12/25 09:07:45;;;;;;;23.00;9.60;;;;;;;-3.64;73.93;97979.16;5104692;28;20031;-65
2021/12/25 09:10:11;;;;;;;33.20;12.73;;;;;;;-3.64;73.63;97958.56;5104591;28;20500;-65
2021/12/25 09:12:41;;;;;;;160.50;42.70;;;;;;;-3.65;73.48;97959.59;5104311;28;20036;-65
2021/12/25 09:15:08;;;;;;;114.68;31.55;;;;;;;-3.67;73.29;97969.69;5103074;28;20030;-64
2021/12/25 09:17:33;;;;;;;77.10;21.58;;;;;;;-3.70;73.31;97975.50;5105138;28;20476;-64
2021/12/25 09:19:59;;;;;;;90.38;26.45;;;;;;;-3.68;73.20;97975.28;5105156;28;20023;-65
2021/12/25 09:22:24;;;;;;;90.32;30.08;;;;;;;-3.69;73.03;97979.00;5105089;28;20046;-65
2021/12/25 09:24:49;;;;;;;46.67;19.23;;;;;;;-3.65;73.26;97978.34;5104561;28;20655;-64
2021/12/25 09:27:15;;;;;;;35.80;18.00;;;;;;;-3.55;73.85;97980.53;5104310;27;20039;-64
2021/12/25 09:29:40;;;;;;;27.42;12.52;;;;;;;-3.46;73.79;97992.66;5105793;27;20039;-64
2021/12/25 09:32:06;;;;;;;28.90;12.82;;;;;;;-3.43;73.06;97991.38;5102255;28;20048;-64
2021/12/25 09:34:31;;;;;;;25.55;12.60;;;;;;;-3.40;72.79;97987.47;5103478;28;20222;-64
2021/12/25 09:36:57;;;;;;;26.90;15.13;;;;;;;-3.38;72.94;97986.19;5100082;28;20551;-64
2021/12/25 09:39:23;;;;;;;50.17;24.50;;;;;;;-3.33;73.12;97990.94;5084851;28;20490;-64
2021/12/25 09:41:49;;;;;;;80.95;28.30;;;;;;;-3.27;73.28;97975.81;5101319;28;20027;-64
2021/12/25 09:44:14;;;;;;;26.40;13.63;;;;;;;-3.23;72.42;97977.03;5083505;28;20533;-64
2021/12/25 09:46:40;;;;;;;28.23;13.45;;;;;;;-3.22;72.71;97976.78;5102542;28;20016;-65
2021/12/25 09:49:06;;;;;;;36.60;17.35;;;;;;;-3.25;72.75;97971.06;5085495;28;20028;-65
2021/12/25 09:51:31;;;;;;;19.73;9.95;;;;;;;-3.32;72.25;97971.94;5104635;28;20032;-64
2021/12/25 09:54:04;;;;;;;72.78;47.47;;;;;;;-3.35;72.56;97966.19;5103822;28;20114;-65
2021/12/25 09:56:30;;;;;;;111.07;67.30;;;;;;;-3.42;72.10;97957.38;5104212;28;20078;-65
2021/12/25 09:58:56;;;;;;;108.18;65.20;;;;;;;-3.45;72.11;97956.75;5106937;28;20471;-65
2021/12/25 10:01:36;;;;;;;85.32;41.92;;;;;;;-3.46;72.42;97962.31;5104160;28;20780;-65
2021/12/25 10:04:03;;;;;;;40.17;21.52;;;;;;;-3.42;72.52;97952.00;5101078;28;20073;-65
2021/12/25 10:06:34;;;;;;;72.03;33.90;;;;;;;-3.41;72.57;97950.97;5102345;28;20054;-65
2021/12/25 10:09:20;;;;;;;53.00;31.38;;;;;;;-3.33;72.76;97951.50;5103806;28;20038;-65
2021/12/25 10:11:58;;;;;;;66.40;33.47;;;;;;;-3.25;72.68;97945.03;5104354;28;20044;-65
2021/12/25 10:14:25;;;;;;;44.83;23.75;;;;;;;-3.15;72.78;97940.00;5102250;28;20032;-64
2021/12/25 10:16:50;;;;;;;27.70;15.85;;;;;;;-3.06;72.37;97940.56;5105822;28;20477;-65
2021/12/25 10:19:20;;;;;;;58.97;25.05;;;;;;;-2.93;72.58;97946.84;5104452;28;20031;-66
2021/12/25 10:21:46;;;;;;;320.92;78.53;;;;;;;-2.93;71.76;97954.88;5104089;28;20055;-64
2021/12/25 10:24:28;;;;;;;169.55;47.88;;;;;;;-2.92;71.94;97957.38;5101189;28;20032;-65
2021/12/25 10:27:07;;;;;;;95.35;28.70;;;;;;;-2.89;71.56;97946.19;5104803;28;20818;-65
2021/12/25 10:29:32;;;;;;;82.65;28.52;;;;;;;-2.77;71.92;97951.63;5104093;28;20036;-65
2021/12/25 10:32:00;;;;;;;136.23;45.65;;;;;;;-2.68;72.23;97943.28;5103123;28;20024;-65
2021/12/25 10:34:30;;;;;;;51.65;21.77;;;;;;;-2.63;70.81;97943.41;5101935;28;20098;-64
2021/12/25 10:37:07;;;;;;;53.40;24.55;;;;;;;-2.61;71.87;97941.34;5103039;28;20034;-64
2021/12/25 10:39:33;;;;;;;41.42;19.10;;;;;;;-2.61;71.63;97933.28;5102557;28;20036;-65
2021/12/25 10:42:13;;;;;;;61.30;27.33;;;;;;;-2.71;71.18;97944.53;5102846;28;20020;-64
2021/12/25 10:44:46;;;;;;;61.58;30.92;;;;;;;-2.75;71.20;97937.97;5101403;28;20047;-64
2021/12/25 10:47:17;;;;;;;33.45;16.00;;;;;;;-2.75;71.56;97946.88;5102534;28;20023;-64
2021/12/25 10:49:45;;;;;;;36.10;19.27;;;;;;;-2.80;70.98;97953.94;5102720;28;20031;-64
2021/12/25 10:52:22;;;;;;;25.02;13.35;;;;;;;-2.82;71.67;97961.38;5102339;28;20039;-64
2021/12/25 10:54:57;;;;;;;22.27;11.75;;;;;;;-2.85;70.95;97950.03;5101673;28;20027;-63
2021/12/25 10:57:38;;;;;;;25.90;14.13;;;;;;;-2.78;71.19;97941.09;5084277;28;20056;-64
2021/12/25 11:00:12;;;;;;;56.60;25.35;;;;;;;-2.72;71.63;97942.91;5102655;28;20387;-63
2021/12/25 11:02:44;;;;;;;69.78;28.15;;;;;;;-2.67;71.55;97942.25;5105012;27;20068;-65
2021/12/25 11:05:18;;;;;;;84.35;31.52;;;;;;;-2.70;71.54;97938.97;5105453;28;20028;-64
2021/12/25 11:07:46;;;;;;;77.57;32.53;;;;;;;-2.73;70.65;97935.91;5106023;28;20024;-64
2021/12/25 11:10:15;;;;;;;54.00;20.88;;;;;;;-2.79;70.74;97934.94;5106100;27;20073;-64
2021/12/25 11:12:41;;;;;;;52.42;20.48;;;;;;;-2.86;70.41;97924.28;5105568;28;20468;-66
2021/12/25 11:15:13;;;;;;;67.18;28.40;;;;;;;-2.88;70.68;97921.00;5105356;27;20491;-64
2021/12/25 11:17:41;;;;;;;73.90;29.35;;;;;;;-2.88;70.69;97926.34;5086890;28;20024;-64
2021/12/25 11:20:17;;;;;;;37.63;16.80;;;;;;;-2.86;70.11;97924.28;5106540;28;20016;-63
2021/12/25 11:22:51;;;;;;;100.75;38.53;;;;;;;-2.88;69.88;97930.91;5105611;28;20035;-63
2021/12/25 11:25:18;;;;;;;135.00;50.30;;;;;;;-2.84;70.37;97932.91;5075873;28;20777;-62
2021/12/25 11:27:44;;;;;;;91.22;33.80;;;;;;;-2.83;69.72;97933.72;5081841;28;20032;-62
2021/12/25 11:30:10;;;;;;;36.63;12.68;;;;;;;-2.85;69.69;97939.31;5084673;27;20275;-63
2021/12/25 11:32:36;;;;;;;24.50;9.25;;;;;;;-2.85;68.49;97942.00;5086860;28;20016;-63
2021/12/25 11:35:02;;;;;;;26.30;9.65;;;;;;;-2.88;69.09;97947.00;5087463;28;20067;-63
2021/12/25 11:37:27;;;;;;;25.30;11.02;;;;;;;-2.89;68.69;97945.34;5086062;28;20036;-62
2021/12/25 11:39:54;;;;;;;20.73;7.55;;;;;;;-2.87;68.50;97949.47;5087042;28;20035;-64
2021/12/25 11:42:21;;;;;;;34.03;12.70;;;;;;;-2.87;68.51;97954.00;5069308;28;20035;-63
2021/12/25 11:44:53;;;;;;;46.78;20.55;;;;;;;-2.84;68.38;97958.94;5088306;27;20567;-62
2021/12/25 11:47:31;;;;;;;36.28;14.55;;;;;;;-2.80;68.65;97956.59;5079991;28;20031;-63
2021/12/25 11:50:00;;;;;;;43.70;18.90;;;;;;;-2.84;67.29;97950.88;5078228;28;20211;-62
2021/12/25 11:52:35;;;;;;;37.95;14.77;;;;;;;-2.87;66.80;97951.31;5083999;28;20050;-62
2021/12/25 11:55:48;;;;;;;28.27;12.77;;;;;;;-2.88;67.65;97945.16;5088472;28;20055;-62
2021/12/25 11:58:41;;;;;;;29.50;12.68;;;;;;;-2.77;67.17;97950.81;5087893;28;20047;-63
2021/12/25 12:01:35;;;;;;;29.20;12.13;;;;;;;-2.75;67.93;97946.03;5087890;27;20437;-62
2021/12/25 12:04:10;;;;;;;24.95;11.43;;;;;;;-2.74;68.20;97942.31;5086210;28;20079;-62
2021/12/25 12:06:44;;;;;;;34.92;14.05;;;;;;;-2.76;68.26;97950.59;5083970;27;20028;-63
2021/12/25 12:09:16;;;;;;;24.20;10.80;;;;;;;-2.75;67.84;97951.41;5077705;28;20118;-63
2021/12/25 12:11:47;;;;;;;36.40;14.15;;;;;;;-2.82;68.01;97961.38;5079831;28;20134;-63
2021/12/25 12:14:22;;;;;;;56.67;21.45;;;;;;;-2.84;68.18;97956.25;5085958;28;20398;-62
2021/12/25 12:16:52;;;;;;;41.90;15.35;;;;;;;-2.86;68.10;97956.47;5090249;27;20649;-62
2021/12/25 12:19:41;;;;;;;37.03;13.82;;;;;;;-2.86;68.36;97961.84;5104626;27;20031;-63
2021/12/25 12:27:46;;;;;;;31.85;12.05;;;;;;;-2.75;68.33;97962.97;5104525;28;20077;-63
2021/12/25 12:30:32;;;;;;;20.80;9.32;;;;;;;-2.77;67.78;97966.91;5103743;28;20182;-63
2021/12/25 12:33:21;;;;;;;22.90;9.35;;;;;;;-2.82;67.91;97964.91;5103744;28;20030;-63
2021/12/25 12:35:52;;;;;;;21.60;9.25;;;;;;;-2.84;67.76;97969.66;5089452;28;20583;-63
2021/12/25 12:38:47;;;;;;;20.85;8.27;;;;;;;-2.87;67.86;97983.53;5104675;28;20039;-63
2021/12/25 12:41:38;;;;;;;24.67;9.60;;;;;;;-2.91;67.74;97993.88;5103692;28;20029;-64
2021/12/25 12:44:11;;;;;;;31.42;12.52;;;;;;;-3.02;67.32;98000.78;5102000;28;20509;-63
2021/12/25 12:46:49;;;;;;;31.42;11.35;;;;;;;-3.04;67.89;97988.63;5083909;28;20038;-63
2021/12/25 12:49:20;;;;;;;23.15;9.52;;;;;;;-3.09;67.81;97993.84;5103812;28;20051;-63